createdAt,value
2024-03-13T00:01:11.775Z,92.50
2024-03-13T00:03:39.183Z,92.59
2024-03-13T00:06:06.683Z,92.47
2024-03-13T00:08:33.847Z,92.54
2024-03-13T00:11:01.147Z,92.50
2024-03-13T00:13:30.605Z,92.61
2024-03-13T00:15:59.429Z,92.63
2024-03-13T00:18:26.843Z,92.79
2024-03-13T00:20:53.988Z,93.04
2024-03-13T00:23:21.191Z,93.04
2024-03-13T00:25:48.418Z,92.93
2024-03-13T00:28:15.725Z,92.93
2024-03-13T00:30:43.118Z,92.86
2024-03-13T00:33:10.382Z,92.86
2024-03-13T00:35:37.854Z,92.74
2024-03-13T00:38:05.469Z,92.74
2024-03-13T00:40:33.712Z,92.79
2024-03-13T00:43:01.235Z,92.88
2024-03-13T00:45:28.690Z,92.92
2024-03-13T00:47:56.202Z,92.92
2024-03-13T00:50:24.468Z,93.05
2024-03-13T00:52:52.000Z,93.12
2024-03-13T00:55:19.287Z,93.25
2024-03-13T00:57:48.273Z,93.31
2024-03-13T01:00:20.006Z,93.40
2024-03-13T01:02:47.338Z,93.43
2024-03-13T01:05:18.553Z,93.57
2024-03-13T01:07:49.966Z,93.54
2024-03-13T01:10:18.158Z,93.62
2024-03-13T01:12:45.591Z,93.61
2024-03-13T01:15:16.521Z,93.63
2024-03-13T01:17:44.440Z,93.79
2024-03-13T01:20:16.648Z,93.80
2024-03-13T01:22:45.520Z,93.82
2024-03-13T01:25:12.779Z,93.70
2024-03-13T01:27:41.485Z,93.87
2024-03-13T01:30:10.046Z,94.07
2024-03-13T01:32:39.086Z,94.17
2024-03-13T01:35:08.051Z,94.40
2024-03-13T01:37:53.717Z,94.65
2024-03-13T01:40:27.344Z,94.39
2024-03-13T01:43:13.567Z,94.43
2024-03-13T01:46:08.697Z,94.40
2024-03-13T01:48:56.798Z,94.46
2024-03-13T01:51:42.821Z,94.30
2024-03-13T01:54:28.684Z,94.12
2024-03-13T01:57:14.235Z,94.07
2024-03-13T02:00:11.523Z,94.15
2024-03-13T02:02:42.372Z,94.20
2024-03-13T02:05:09.886Z,94.22
2024-03-13T02:07:37.331Z,94.43
2024-03-13T02:10:05.778Z,94.65
2024-03-13T02:12:33.141Z,94.59
2024-03-13T02:15:00.468Z,94.42
2024-03-13T02:17:28.098Z,94.31
2024-03-13T02:19:57.278Z,94.27
2024-03-13T02:22:25.505Z,94.27
2024-03-13T02:24:53.802Z,94.54
2024-03-13T02:27:21.230Z,94.49
2024-03-13T02:29:50.578Z,94.39
2024-03-13T02:32:17.745Z,94.56
2024-03-13T02:34:47.693Z,94.52
2024-03-13T02:37:14.922Z,94.61
2024-03-13T02:39:42.533Z,94.66
2024-03-13T02:42:11.229Z,94.63
2024-03-13T02:44:38.433Z,94.64
2024-03-13T02:47:05.871Z,94.75
2024-03-13T02:49:33.199Z,94.78
2024-03-13T02:52:00.487Z,94.66
2024-03-13T02:54:27.870Z,94.60
2024-03-13T02:56:54.979Z,94.61
2024-03-13T02:59:22.223Z,94.73
2024-03-13T03:01:50.210Z,94.69
2024-03-13T03:04:18.159Z,94.75
2024-03-13T03:06:47.397Z,94.79
2024-03-13T03:09:14.799Z,95.16
2024-03-13T03:11:44.790Z,95.17
2024-03-13T03:14:12.030Z,95.17
2024-03-13T03:16:39.189Z,95.39
2024-03-13T03:19:06.407Z,95.01
2024-03-13T03:21:34.412Z,94.86
2024-03-13T03:24:02.086Z,94.83
2024-03-13T03:26:29.694Z,95.04
2024-03-13T03:28:58.050Z,95.26
2024-03-13T03:31:25.447Z,95.25
2024-03-13T03:33:53.331Z,95.07
2024-03-13T03:36:21.074Z,95.08
2024-03-13T03:38:49.288Z,95.70
2024-03-13T03:41:16.679Z,95.91
2024-03-13T03:43:45.454Z,95.56
2024-03-13T03:46:13.803Z,95.45
2024-03-13T03:48:42.042Z,95.46
2024-03-13T03:51:11.547Z,95.75
2024-03-13T03:53:39.301Z,95.78
2024-03-13T03:56:08.712Z,95.97
2024-03-13T03:58:36.215Z,95.80
2024-03-13T04:01:03.590Z,95.66
2024-03-13T04:03:31.123Z,95.59
2024-03-13T04:05:58.655Z,95.28
2024-03-13T04:08:25.770Z,95.43
2024-03-13T04:10:53.389Z,95.48
2024-03-13T04:13:21.333Z,95.61
2024-03-13T04:15:48.674Z,95.74
2024-03-13T04:18:15.940Z,96.10
2024-03-13T04:20:44.502Z,95.74
2024-03-13T04:23:13.716Z,95.52
2024-03-13T04:25:45.940Z,95.46
2024-03-13T04:28:13.347Z,95.25
2024-03-13T04:30:43.526Z,96.28
2024-03-13T04:33:11.156Z,96.48
2024-03-13T04:35:38.333Z,96.18
2024-03-13T04:38:06.084Z,95.98
2024-03-13T04:40:33.306Z,95.57
2024-03-13T04:43:01.605Z,95.85
2024-03-13T04:45:28.812Z,96.02
2024-03-13T04:47:56.185Z,96.16
2024-03-13T04:50:23.511Z,95.80
2024-03-13T04:52:50.752Z,95.81
2024-03-13T04:55:18.028Z,96.04
2024-03-13T04:57:45.251Z,95.80
2024-03-13T05:00:12.805Z,95.73
2024-03-13T05:02:41.086Z,95.63
2024-03-13T05:05:17.260Z,95.81
2024-03-13T05:07:45.033Z,95.93
2024-03-13T05:10:12.918Z,96.24
2024-03-13T05:12:40.133Z,95.74
2024-03-13T05:15:08.388Z,95.75
2024-03-13T05:17:38.393Z,95.62
2024-03-13T05:20:08.688Z,95.49
2024-03-13T05:22:36.221Z,95.63
2024-03-13T05:25:06.421Z,95.47
2024-03-13T05:27:34.129Z,95.54
2024-03-13T05:30:01.374Z,95.58
2024-03-13T05:32:28.666Z,95.43
2024-03-13T05:34:57.195Z,95.80
2024-03-13T05:37:24.412Z,95.73
2024-03-13T05:39:53.976Z,96.15
2024-03-13T05:42:21.273Z,95.86
2024-03-13T05:44:48.428Z,96.13
2024-03-13T05:47:16.316Z,95.65
2024-03-13T05:49:43.550Z,96.10
2024-03-13T05:52:10.800Z,95.80
2024-03-13T05:54:38.096Z,95.87
2024-03-13T05:57:05.501Z,95.85
2024-03-13T05:59:32.676Z,95.61
2024-03-13T06:02:00.091Z,96.23
2024-03-13T06:04:27.479Z,96.49
2024-03-13T06:06:54.859Z,96.09
2024-03-13T06:09:24.456Z,95.81
2024-03-13T06:11:51.639Z,96.23
2024-03-13T06:14:18.779Z,96.22
2024-03-13T06:16:46.011Z,96.08
2024-03-13T06:19:13.528Z,95.97
2024-03-13T06:21:40.997Z,95.91
2024-03-13T06:24:08.164Z,95.65
2024-03-13T06:26:35.420Z,95.44
2024-03-13T06:29:21.014Z,95.55
2024-03-13T06:31:48.348Z,95.43
2024-03-13T06:34:15.527Z,96.43
2024-03-13T06:36:42.727Z,96.20
2024-03-13T06:39:10.905Z,96.08
2024-03-13T06:41:38.100Z,95.65
2024-03-13T06:44:06.942Z,96.33
2024-03-13T06:46:34.883Z,96.52
2024-03-13T06:49:02.070Z,96.14
2024-03-13T06:51:29.348Z,95.83
2024-03-13T06:53:56.622Z,96.27
2024-03-13T06:56:24.040Z,96.27
2024-03-13T06:58:51.870Z,96.40
2024-03-13T07:01:20.350Z,96.10
2024-03-13T07:03:47.717Z,95.62
2024-03-13T07:06:16.234Z,96.13
2024-03-13T07:08:43.536Z,96.07
2024-03-13T07:11:10.902Z,95.62
2024-03-13T07:13:38.316Z,95.64
2024-03-13T07:16:05.963Z,95.52
2024-03-13T07:18:36.418Z,95.53
2024-03-13T07:21:04.863Z,95.36
2024-03-13T07:23:32.041Z,95.44
2024-03-13T07:26:00.920Z,95.62
2024-03-13T07:28:28.205Z,95.96
2024-03-13T07:30:56.108Z,96.82
2024-03-13T07:33:23.302Z,97.28
2024-03-13T07:35:50.513Z,96.99
2024-03-13T07:38:17.758Z,96.76
2024-03-13T07:40:45.656Z,97.10
2024-03-13T07:43:12.958Z,96.98
2024-03-13T07:45:44.414Z,96.80
2024-03-13T07:48:11.909Z,96.64
2024-03-13T07:50:40.731Z,96.50
2024-03-13T07:53:08.144Z,96.42
2024-03-13T07:55:36.217Z,96.86
2024-03-13T07:58:04.566Z,97.07
2024-03-13T08:00:37.258Z,97.41
2024-03-13T08:03:04.988Z,97.07
2024-03-13T08:05:33.631Z,96.80
2024-03-13T09:07:12.888Z,97.54
2024-03-13T09:09:40.100Z,97.41
2024-03-13T09:12:09.141Z,97.32
2024-03-13T09:14:39.290Z,97.35
2024-03-13T09:17:12.702Z,97.03
2024-03-13T09:19:40.206Z,97.29
2024-03-13T09:22:09.430Z,97.00
2024-03-13T09:24:36.671Z,96.97
2024-03-13T09:27:04.020Z,97.43
2024-03-13T09:29:33.200Z,97.20
2024-03-13T09:32:00.705Z,97.41
2024-03-13T09:34:32.067Z,97.37
2024-03-13T09:37:01.251Z,97.39
2024-03-13T09:39:28.550Z,96.98
2024-03-13T09:41:59.141Z,96.71
2024-03-13T09:44:27.785Z,96.80
2024-03-13T09:46:57.312Z,96.68
2024-03-13T09:49:27.192Z,96.51
2024-03-13T09:51:55.331Z,97.17
2024-03-13T09:54:22.903Z,96.54
2024-03-13T09:56:51.340Z,96.32
2024-03-13T09:59:18.513Z,96.31
2024-03-13T10:01:53.090Z,96.47
2024-03-13T10:04:26.229Z,96.61
2024-03-13T10:07:00.404Z,96.36
2024-03-13T10:09:36.940Z,96.58
2024-03-13T10:12:06.593Z,96.21
2024-03-13T10:14:34.902Z,96.21
2024-03-13T10:17:07.199Z,96.37
2024-03-13T10:19:40.505Z,96.31
2024-03-13T10:22:08.794Z,96.07
2024-03-13T10:24:38.174Z,96.10
2024-03-13T10:27:09.139Z,96.33
2024-03-13T10:29:36.670Z,96.36
2024-03-13T10:32:06.127Z,96.73
2024-03-13T10:34:37.103Z,96.49
2024-03-13T10:37:15.025Z,96.26
2024-03-13T10:39:45.470Z,96.09
2024-03-13T10:42:13.122Z,95.94
2024-03-13T10:44:41.770Z,95.95
2024-03-13T10:47:10.906Z,95.78
2024-03-13T10:49:38.203Z,95.65
2024-03-13T10:52:13.893Z,95.27
2024-03-13T10:54:42.682Z,95.59
2024-03-13T10:57:18.591Z,95.14
2024-03-13T10:59:49.935Z,95.08
2024-03-13T11:02:17.276Z,94.98
2024-03-13T11:04:46.002Z,94.93
2024-03-13T11:07:14.059Z,94.60
2024-03-13T11:09:41.961Z,94.35
2024-03-13T11:12:21.146Z,93.07
2024-03-13T11:14:53.682Z,92.68
2024-03-13T11:17:22.587Z,93.04
2024-03-13T11:20:09.801Z,91.89
2024-03-13T11:22:37.823Z,92.04
2024-03-13T11:25:13.728Z,92.41
2024-03-13T11:27:50.855Z,92.22
2024-03-13T11:30:22.122Z,91.23
2024-03-13T11:32:52.850Z,90.53
2024-03-13T11:35:20.838Z,91.05
2024-03-13T11:37:48.877Z,89.55
2024-03-13T11:40:17.384Z,90.15
2024-03-13T11:42:45.238Z,88.34
2024-03-13T11:45:17.780Z,87.76
2024-03-13T11:47:49.672Z,86.25
2024-03-13T11:50:17.164Z,87.09
2024-03-13T11:53:02.494Z,86.39
2024-03-13T11:55:31.424Z,87.97
2024-03-13T11:58:04.269Z,86.60
2024-03-13T12:00:31.754Z,87.17
2024-03-13T12:02:59.052Z,88.46
2024-03-13T12:05:37.518Z,87.51
2024-03-13T12:08:05.665Z,87.47
2024-03-13T12:10:33.035Z,85.31
2024-03-13T12:13:00.350Z,85.04
2024-03-13T12:15:28.630Z,86.34
2024-03-13T12:17:59.259Z,86.77
2024-03-13T12:20:29.989Z,85.22
2024-03-13T12:23:00.026Z,86.38
2024-03-13T12:25:27.515Z,85.59
2024-03-13T12:27:54.952Z,86.66
2024-03-13T12:30:23.037Z,84.70
2024-03-13T12:33:01.680Z,86.09
2024-03-13T12:35:30.525Z,86.70
2024-03-13T12:37:59.797Z,86.99
2024-03-13T12:40:28.035Z,87.14
2024-03-13T12:42:55.838Z,87.41
2024-03-13T12:45:24.455Z,86.04
2024-03-13T12:47:52.074Z,86.62
2024-03-13T12:50:20.185Z,86.61
2024-03-13T12:52:48.194Z,86.02
2024-03-13T12:55:22.766Z,85.90
2024-03-13T12:57:50.855Z,86.67
2024-03-13T13:00:22.271Z,87.02
2024-03-13T13:02:55.407Z,86.18
2024-03-13T13:05:23.018Z,86.41
2024-03-13T13:07:53.578Z,85.64
2024-03-13T13:10:26.438Z,86.51
2024-03-13T13:12:54.862Z,85.26
2024-03-13T13:15:23.530Z,85.49
2024-03-13T13:17:51.381Z,84.64
2024-03-13T13:20:24.724Z,85.22
2024-03-13T13:22:53.563Z,84.74
2024-03-13T13:25:23.335Z,83.20
2024-03-13T13:27:55.795Z,82.75
2024-03-13T13:30:23.466Z,82.88
2024-03-13T13:32:52.557Z,83.77
2024-03-13T13:35:20.114Z,83.49
2024-03-13T13:37:48.149Z,82.44
2024-03-13T13:40:24.920Z,82.03
2024-03-13T13:42:56.284Z,82.06
2024-03-13T13:45:24.864Z,81.93
2024-03-13T13:47:53.208Z,82.72
2024-03-13T13:50:21.752Z,81.60
2024-03-13T13:52:49.333Z,82.35
2024-03-13T13:55:18.021Z,82.87
2024-03-13T13:57:52.290Z,82.93
2024-03-13T14:00:24.676Z,82.30
2024-03-13T14:02:54.475Z,81.87
2024-03-13T14:05:22.529Z,83.02
2024-03-13T14:07:53.023Z,84.18
2024-03-13T14:10:20.967Z,82.05
2024-03-13T14:12:50.011Z,83.14
2024-03-13T14:15:21.319Z,82.95
2024-03-13T14:17:51.637Z,82.32
2024-03-13T14:20:23.223Z,81.97
2024-03-13T14:22:55.401Z,84.41
2024-03-13T14:25:24.722Z,84.10
2024-03-13T14:27:51.964Z,83.48
2024-03-13T14:30:19.884Z,80.67
2024-03-13T14:32:48.028Z,83.05
2024-03-13T14:35:16.703Z,81.71
2024-03-13T14:37:44.544Z,83.59
2024-03-13T14:40:19.345Z,81.15
2024-03-13T14:42:48.343Z,82.01
2024-03-13T14:45:16.900Z,80.75
2024-03-13T14:47:46.904Z,81.32
2024-03-13T14:50:20.253Z,78.59
2024-03-13T14:55:23.179Z,77.98
2024-03-13T14:57:50.400Z,78.17
2024-03-13T15:00:18.255Z,74.99
2024-03-13T15:02:45.814Z,74.80
2024-03-13T15:05:13.998Z,78.36
2024-03-13T15:07:41.521Z,77.68
2024-03-13T15:10:12.704Z,77.26
2024-03-13T15:12:41.115Z,77.75
2024-03-13T15:15:11.595Z,77.26
2024-03-13T15:17:44.606Z,79.04
2024-03-13T15:20:14.763Z,78.92
2024-03-13T15:22:41.952Z,76.80
2024-03-13T15:25:11.393Z,76.75
2024-03-13T15:27:40.414Z,73.76
2024-03-13T15:30:09.293Z,77.55
2024-03-13T15:32:38.052Z,77.56
2024-03-13T15:35:09.323Z,74.62
2024-03-13T15:37:37.155Z,75.73
2024-03-13T15:40:23.080Z,78.22
2024-03-13T15:42:50.756Z,76.73
2024-03-13T15:45:19.376Z,76.05
2024-03-13T15:47:47.781Z,78.05
2024-03-13T15:50:24.832Z,75.26
2024-03-13T15:52:57.568Z,79.89
2024-03-13T15:55:24.893Z,79.53
2024-03-13T15:57:52.964Z,79.67
2024-03-13T16:00:24.833Z,75.98
2024-03-13T16:02:56.546Z,78.83
2024-03-13T16:05:25.187Z,77.91
2024-03-13T16:08:08.335Z,78.53
2024-03-13T16:10:35.604Z,78.79
2024-03-13T16:13:02.934Z,74.80
2024-03-13T16:15:36.697Z,78.18
2024-03-13T16:18:05.392Z,79.05
2024-03-13T16:20:32.678Z,78.63
2024-03-13T16:23:00.481Z,77.54
2024-03-13T16:25:28.537Z,77.89
2024-03-13T16:27:57.700Z,78.71
2024-03-13T16:30:25.579Z,76.52
2024-03-13T16:32:53.004Z,76.53
2024-03-13T16:35:22.187Z,77.01
2024-03-13T16:37:49.599Z,73.84
2024-03-13T16:40:19.441Z,74.66
2024-03-13T16:42:47.070Z,75.96
2024-03-13T16:45:17.777Z,76.48
2024-03-13T16:47:45.177Z,76.87
2024-03-13T16:50:16.380Z,77.22
2024-03-13T16:52:44.137Z,77.00
2024-03-13T16:55:12.928Z,75.70
2024-03-13T16:57:41.790Z,75.25
2024-03-13T17:00:17.097Z,75.12
2024-03-13T17:02:45.781Z,75.47
2024-03-13T17:05:15.860Z,76.24
2024-03-13T17:07:44.094Z,76.61
2024-03-13T17:10:11.348Z,76.12
2024-03-13T17:12:39.825Z,76.38
2024-03-13T17:15:08.001Z,77.23
2024-03-13T17:17:35.805Z,77.42
2024-03-13T17:20:03.099Z,76.86
2024-03-13T17:22:30.293Z,77.68
2024-03-13T17:24:57.446Z,76.50
2024-03-13T17:27:24.781Z,77.67
2024-03-13T17:29:51.999Z,77.16
2024-03-13T17:32:20.996Z,76.55
2024-03-13T17:34:50.345Z,67.04
2024-03-13T17:37:17.564Z,70.40
2024-03-13T17:39:44.869Z,72.54
2024-03-13T17:42:14.896Z,73.72
2024-03-13T17:44:42.304Z,73.87
2024-03-13T17:47:09.550Z,74.65
2024-03-13T17:49:37.468Z,74.69
2024-03-13T17:52:04.775Z,75.33
2024-03-13T17:54:33.079Z,75.10
2024-03-13T17:57:00.473Z,75.97
2024-03-13T17:59:27.731Z,75.19
2024-03-13T18:01:54.981Z,74.74
2024-03-13T18:04:22.310Z,75.60
2024-03-13T18:06:49.659Z,75.06
2024-03-13T18:09:17.094Z,74.37
2024-03-13T18:11:44.456Z,74.74
2024-03-13T18:14:13.031Z,75.44
2024-03-13T18:16:41.373Z,74.95
2024-03-13T18:19:09.445Z,74.68
2024-03-13T18:21:36.911Z,75.53
2024-03-13T18:24:04.526Z,75.48
2024-03-13T18:26:34.864Z,75.76
2024-03-13T18:29:02.116Z,75.41
2024-03-13T18:31:29.369Z,75.67
2024-03-13T18:33:56.899Z,75.47
2024-03-13T18:36:24.807Z,75.21
2024-03-13T18:38:52.263Z,75.67
2024-03-13T18:41:21.295Z,75.77
2024-03-13T18:43:48.482Z,76.01
2024-03-13T18:46:16.609Z,76.15
2024-03-13T18:48:44.050Z,75.63
2024-03-13T18:51:11.346Z,75.71
2024-03-13T18:53:38.652Z,75.72
2024-03-13T18:56:07.224Z,76.12
2024-03-13T18:58:36.073Z,76.08
2024-03-13T19:01:04.636Z,75.37
2024-03-13T19:03:31.959Z,74.69
2024-03-13T19:05:59.815Z,75.00
2024-03-13T19:08:29.447Z,74.87
2024-03-13T19:10:56.784Z,74.99
2024-03-13T19:13:23.980Z,75.77
2024-03-13T19:15:55.501Z,75.36
2024-03-13T19:18:22.871Z,75.93
2024-03-13T19:20:50.084Z,76.03
2024-03-13T19:23:17.453Z,75.21
2024-03-13T19:25:44.574Z,75.05
2024-03-13T19:28:11.822Z,75.78
2024-03-13T19:30:39.079Z,75.12
2024-03-13T19:33:06.597Z,75.21
2024-03-13T19:35:36.020Z,75.45
2024-03-13T19:38:03.507Z,75.35
2024-03-13T19:40:30.693Z,75.48
2024-03-13T19:43:01.776Z,75.28
2024-03-13T19:45:29.369Z,75.95
2024-03-13T19:47:57.984Z,75.23
2024-03-13T19:50:25.293Z,75.41
2024-03-13T19:52:52.537Z,75.50
2024-03-13T19:55:19.735Z,75.83
2024-03-13T19:57:46.965Z,75.12
2024-03-13T20:00:18.896Z,75.14
2024-03-13T20:02:46.566Z,75.34
2024-03-13T20:05:14.675Z,75.21
2024-03-13T20:07:44.601Z,74.99
2024-03-13T20:10:14.971Z,74.79
2024-03-13T20:12:42.549Z,75.15
2024-03-13T20:15:10.499Z,75.45
2024-03-13T20:17:39.616Z,74.76
2024-03-13T20:20:07.631Z,74.96
2024-03-13T20:22:36.842Z,75.15
2024-03-13T20:25:04.528Z,74.93
2024-03-13T20:27:31.937Z,74.41
2024-03-13T20:29:59.296Z,74.46
2024-03-13T20:32:26.597Z,74.14
2024-03-13T20:34:53.868Z,74.34
2024-03-13T20:37:23.286Z,74.23
2024-03-13T20:39:53.422Z,74.03
2024-03-13T20:42:23.629Z,73.56
2024-03-13T20:44:50.858Z,73.50
2024-03-13T20:47:18.251Z,74.70
2024-03-13T20:49:45.866Z,74.67
2024-03-13T20:52:13.040Z,74.47
2024-03-13T20:54:40.641Z,74.35
2024-03-13T20:57:08.033Z,74.22
2024-03-13T20:59:35.945Z,74.02
2024-03-13T21:02:05.733Z,74.49
2024-03-13T21:04:32.981Z,74.91
2024-03-13T21:07:00.160Z,74.32
2024-03-13T21:09:28.113Z,74.20
2024-03-13T21:11:57.040Z,74.56
2024-03-13T21:14:24.640Z,74.57
2024-03-13T21:16:52.840Z,75.02
2024-03-13T21:19:20.330Z,74.89
2024-03-13T21:21:47.575Z,75.18
2024-03-13T21:24:14.994Z,74.80
2024-03-13T21:26:43.209Z,74.72
2024-03-13T21:29:15.666Z,74.63
2024-03-13T21:31:43.450Z,74.52
2024-03-13T21:34:17.156Z,75.01
2024-03-13T21:36:48.660Z,74.54
2024-03-13T21:39:15.992Z,74.89
2024-03-13T21:41:43.905Z,74.89
2024-03-13T21:44:11.162Z,75.29
2024-03-13T21:46:38.541Z,75.24
2024-03-13T21:49:05.947Z,75.65
2024-03-13T21:51:33.392Z,75.58
2024-03-13T21:54:02.138Z,75.16
2024-03-13T21:56:32.709Z,75.44
2024-03-13T21:59:01.055Z,74.92
2024-03-13T22:01:28.344Z,75.37
2024-03-13T22:03:58.453Z,75.60
2024-03-13T22:06:26.526Z,75.28
2024-03-13T22:08:53.832Z,75.18
2024-03-13T22:11:21.156Z,75.38
2024-03-13T22:13:48.575Z,75.41
2024-03-13T22:16:16.378Z,75.73
2024-03-13T22:18:43.814Z,75.39
2024-03-13T22:21:11.431Z,75.73
2024-03-13T22:23:40.309Z,76.33
2024-03-13T22:26:09.273Z,75.67
2024-03-13T22:28:36.440Z,75.47
2024-03-13T22:31:03.749Z,76.01
2024-03-13T22:33:31.149Z,75.76
2024-03-13T22:35:58.486Z,75.40
2024-03-13T22:38:25.631Z,76.21
2024-03-13T22:40:53.068Z,76.09
2024-03-13T22:43:20.222Z,75.71
2024-03-13T22:45:48.420Z,76.05
2024-03-13T22:48:15.821Z,75.79
2024-03-13T22:50:43.162Z,76.45
2024-03-13T22:53:10.450Z,76.66
2024-03-13T22:55:37.667Z,76.73
2024-03-13T22:58:04.955Z,76.64
2024-03-13T23:00:32.186Z,76.70
2024-03-13T23:02:59.371Z,77.15
2024-03-13T23:05:26.544Z,76.30
2024-03-13T23:07:53.963Z,76.89
2024-03-13T23:10:24.061Z,76.47
2024-03-13T23:12:52.828Z,77.20
2024-03-13T23:15:20.153Z,76.82
2024-03-13T23:17:47.442Z,77.16
2024-03-13T23:20:14.863Z,77.14
2024-03-13T23:22:42.849Z,76.63
2024-03-13T23:25:11.592Z,76.46
2024-03-13T23:27:39.695Z,76.90
2024-03-13T23:30:08.875Z,76.58
2024-03-13T23:32:36.700Z,76.32
2024-03-13T23:35:07.193Z,76.80
2024-03-13T23:37:37.280Z,76.98
2024-03-13T23:40:06.062Z,76.53
2024-03-13T23:42:44.582Z,76.69
2024-03-13T23:45:14.118Z,76.34
2024-03-13T23:47:42.767Z,76.86
2024-03-13T23:50:13.668Z,76.89
2024-03-13T23:52:41.443Z,76.84
2024-03-13T23:55:08.716Z,76.66
2024-03-13T23:57:36.458Z,76.74
